createdAt,value
2023-01-25T00:03:38.838Z,8.90
2023-01-25T00:13:40.903Z,9.37
2023-01-25T00:23:43.123Z,9.47
2023-01-25T00:33:52.246Z,9.27
2023-01-25T00:43:54.488Z,8.13
2023-01-25T00:53:56.633Z,8.93
2023-01-25T01:03:58.816Z,9.73
2023-01-25T01:14:01.003Z,10.37
2023-01-25T01:24:03.204Z,10.47
2023-01-25T01:34:05.270Z,8.67
2023-01-25T01:44:10.828Z,9.17
2023-01-25T01:54:20.684Z,9.53
2023-01-25T02:04:24.425Z,9.47
2023-01-25T02:14:28.651Z,10.00
2023-01-25T02:24:33.110Z,8.73
2023-01-25T02:34:36.259Z,9.77
2023-01-25T02:44:38.601Z,9.13
2023-01-25T02:54:40.630Z,10.33
2023-01-25T03:04:42.682Z,10.60
2023-01-25T03:14:44.760Z,10.13
2023-01-25T03:24:46.835Z,10.33
2023-01-25T03:34:49.041Z,10.90
2023-01-25T03:44:51.102Z,11.57
2023-01-25T03:54:53.302Z,10.63
2023-01-25T04:04:55.348Z,11.03
2023-01-25T04:14:56.977Z,10.50
2023-01-25T04:24:59.047Z,10.00
2023-01-25T04:35:01.094Z,10.60
2023-01-25T04:45:03.759Z,10.50
2023-01-25T04:55:06.095Z,10.53
2023-01-25T05:05:08.607Z,10.33
2023-01-25T05:15:11.527Z,10.77
2023-01-25T05:25:32.630Z,11.27
2023-01-25T05:35:34.683Z,10.23
2023-01-25T05:45:36.800Z,10.30
2023-01-25T05:55:38.928Z,10.73
2023-01-25T06:05:40.967Z,12.10
2023-01-25T06:15:43.152Z,12.13
2023-01-25T06:25:45.389Z,11.10
2023-01-25T06:35:47.427Z,13.03
2023-01-25T06:45:49.471Z,13.47
2023-01-25T06:55:57.079Z,11.60
2023-01-25T07:06:03.836Z,12.17
2023-01-25T07:16:07.545Z,13.50
2023-01-25T07:26:20.422Z,12.73
2023-01-25T07:36:22.868Z,13.20
2023-01-25T07:46:25.032Z,13.83
2023-01-25T07:56:29.338Z,13.67
2023-01-25T08:06:38.704Z,13.13
2023-01-25T08:16:40.872Z,14.37
2023-01-25T08:26:43.704Z,13.23
2023-01-25T08:36:45.731Z,13.60
2023-01-25T08:46:47.784Z,13.43
2023-01-25T08:56:49.843Z,12.73
2023-01-25T09:07:19.731Z,13.63
2023-01-25T09:17:21.826Z,14.27
2023-01-25T09:27:23.967Z,13.53
2023-01-25T09:37:26.085Z,12.70
2023-01-25T09:47:31.600Z,13.10
2023-01-25T09:57:33.621Z,12.77
2023-01-25T10:07:46.942Z,14.27
2023-01-25T10:18:05.460Z,13.70
2023-01-25T10:28:42.156Z,12.17
2023-01-25T10:38:46.469Z,13.60
2023-01-25T10:48:48.623Z,14.30
2023-01-25T10:58:54.381Z,13.30
2023-01-25T11:08:56.757Z,12.37
2023-01-25T11:19:00.001Z,12.60
2023-01-25T11:29:13.295Z,12.37
2023-01-25T11:39:23.959Z,12.00
2023-01-25T11:49:31.632Z,11.13
2023-01-25T11:59:45.826Z,12.60
2023-01-25T12:10:19.589Z,11.77
2023-01-25T12:20:21.604Z,11.37
2023-01-25T12:30:23.709Z,11.57
2023-01-25T12:40:54.722Z,14.50
2023-01-25T12:50:58.233Z,11.80
2023-01-25T13:01:33.632Z,12.30
2023-01-25T13:11:38.772Z,11.77
2023-01-25T13:30:32.897Z,13.30
2023-01-25T13:40:37.701Z,11.77
2023-01-25T13:50:47.178Z,11.60
2023-01-25T14:00:55.053Z,12.37
2023-01-25T14:10:57.832Z,12.70
2023-01-25T14:21:16.281Z,12.97
2023-01-25T14:31:26.279Z,12.53
2023-01-25T14:41:32.714Z,13.47
2023-01-25T14:51:38.741Z,13.63
2023-01-25T15:01:41.397Z,12.50
2023-01-25T15:11:49.343Z,13.53
2023-01-25T15:21:51.564Z,12.77
2023-01-25T15:31:55.540Z,14.20
2023-01-25T15:41:57.657Z,11.80
2023-01-25T15:51:59.813Z,12.77
2023-01-25T16:02:02.939Z,13.13
2023-01-25T16:12:05.176Z,13.13
2023-01-25T16:22:07.255Z,13.77
2023-01-25T16:32:09.381Z,12.80
2023-01-25T16:42:11.664Z,13.07
2023-01-25T16:52:13.717Z,12.50
2023-01-25T17:02:15.787Z,12.17
2023-01-25T17:12:17.921Z,12.53
2023-01-25T17:22:19.974Z,15.50
2023-01-25T17:32:21.710Z,13.50
2023-01-25T17:42:23.791Z,13.73
2023-01-25T17:52:25.851Z,13.73
2023-01-25T18:02:27.942Z,13.30
2023-01-25T18:12:30.064Z,12.97
2023-01-25T18:22:34.759Z,15.10
2023-01-25T18:32:36.800Z,13.20
2023-01-25T18:42:38.868Z,16.03
2023-01-25T18:52:40.560Z,13.80
2023-01-25T19:02:42.753Z,13.67
2023-01-25T19:12:44.839Z,14.43
2023-01-25T19:22:47.860Z,14.33
2023-01-25T19:32:49.917Z,15.47
2023-01-25T19:42:51.958Z,15.70
2023-01-25T19:52:55.571Z,15.30
2023-01-25T20:03:04.342Z,14.67
2023-01-25T20:13:17.095Z,15.63
2023-01-25T20:23:19.223Z,15.20
2023-01-25T20:33:21.474Z,15.73
2023-01-25T20:43:24.724Z,16.10
2023-01-25T20:53:26.759Z,15.23
2023-01-25T21:03:30.121Z,14.53
2023-01-25T21:13:32.528Z,16.37
2023-01-25T21:23:35.160Z,15.53
2023-01-25T21:33:37.915Z,16.33
2023-01-25T21:43:58.680Z,16.90
2023-01-25T21:54:01.008Z,16.33
2023-01-25T22:04:03.066Z,14.93
2023-01-25T22:14:05.379Z,15.63
2023-01-25T22:24:08.085Z,15.23
2023-01-25T22:34:10.152Z,15.33
2023-01-25T22:44:11.884Z,15.83
2023-01-25T22:54:13.966Z,16.07
2023-01-25T23:04:16.081Z,15.93
2023-01-25T23:14:36.703Z,16.70
2023-01-25T23:24:38.747Z,15.47
2023-01-25T23:34:41.453Z,16.67
2023-01-25T23:44:43.726Z,16.90
2023-01-25T23:54:45.797Z,15.47
